createdAt,value
2018-04-14T00:00:11.726Z,63.80
2018-04-14T00:02:39.160Z,65.00
2018-04-14T00:05:06.591Z,63.63
2018-04-14T00:07:34.257Z,64.53
2018-04-14T00:10:01.683Z,62.53
2018-04-14T00:12:29.111Z,62.77
2018-04-14T00:14:56.532Z,63.83
2018-04-14T00:17:23.972Z,65.07
2018-04-14T00:19:51.412Z,61.43
2018-04-14T00:22:18.820Z,61.57
2018-04-14T00:24:46.260Z,63.27
2018-04-14T00:27:13.668Z,56.97
2018-04-14T00:29:41.100Z,60.67
2018-04-14T00:32:08.527Z,60.90
2018-04-14T00:34:35.956Z,58.97
2018-04-14T00:37:03.384Z,58.60
2018-04-14T00:39:30.953Z,59.53
2018-04-14T00:41:58.371Z,61.60
2018-04-14T00:44:25.795Z,61.57
2018-04-14T00:46:53.215Z,61.57
2018-04-14T00:49:20.624Z,60.00
2018-04-14T00:51:48.058Z,60.90
2018-04-14T00:54:15.468Z,59.83
2018-04-14T00:56:42.896Z,60.73
2018-04-14T00:59:10.372Z,60.77
2018-04-14T01:01:37.799Z,59.00
2018-04-14T01:04:05.221Z,61.13
2018-04-14T01:06:37.539Z,60.33
2018-04-14T01:09:05.884Z,60.47
2018-04-14T01:11:33.375Z,62.73
2018-04-14T01:14:00.789Z,64.37
2018-04-14T01:16:28.468Z,61.63
2018-04-14T01:18:55.890Z,62.97
2018-04-14T01:21:23.307Z,60.17
2018-04-14T01:23:50.732Z,64.07
2018-04-14T01:26:18.157Z,59.27
2018-04-14T01:28:45.588Z,62.83
2018-04-14T01:31:13.018Z,63.23
2018-04-14T01:33:40.429Z,61.73
2018-04-14T01:36:07.862Z,62.57
2018-04-14T01:38:35.292Z,64.03
2018-04-14T01:41:02.710Z,67.27
2018-04-14T01:43:30.147Z,66.20
2018-04-14T01:45:57.576Z,62.90
2018-04-14T01:48:24.987Z,66.30
2018-04-14T01:50:52.432Z,66.07
2018-04-14T01:53:19.849Z,65.77
2018-04-14T01:55:47.268Z,62.43
2018-04-14T01:58:14.721Z,67.43
2018-04-14T02:00:43.148Z,68.60
2018-04-14T02:03:10.584Z,71.40
2018-04-14T02:05:38.005Z,67.57
2018-04-14T02:08:05.439Z,69.77
2018-04-14T02:10:32.875Z,69.60
2018-04-14T02:13:00.316Z,69.10
2018-04-14T02:15:27.728Z,64.83
2018-04-14T02:17:55.156Z,65.60
2018-04-14T02:20:22.585Z,64.33
2018-04-14T02:22:50.016Z,64.13
2018-04-14T02:25:17.429Z,64.63
2018-04-14T02:27:44.991Z,63.77
2018-04-14T02:30:12.417Z,60.03
2018-04-14T02:32:39.832Z,66.03
2018-04-14T02:35:07.436Z,62.83
2018-04-14T02:37:34.849Z,64.43
2018-04-14T02:40:02.277Z,67.33
2018-04-14T02:42:29.730Z,68.70
2018-04-14T02:44:57.148Z,68.73
2018-04-14T02:47:24.576Z,67.67
2018-04-14T02:49:51.994Z,68.20
2018-04-14T02:52:19.477Z,71.07
2018-04-14T02:54:46.852Z,67.43
2018-04-14T02:57:14.276Z,68.40
2018-04-14T02:59:41.709Z,70.03
2018-04-14T03:02:09.239Z,62.37
2018-04-14T03:04:36.656Z,62.73
2018-04-14T03:07:04.081Z,65.20
2018-04-14T03:09:31.516Z,59.93
2018-04-14T03:11:59.045Z,59.77
2018-04-14T03:14:26.467Z,56.53
2018-04-14T03:16:53.897Z,57.20
2018-04-14T03:19:21.491Z,56.17
2018-04-14T03:21:48.909Z,57.37
2018-04-14T03:24:16.331Z,59.33
2018-04-14T03:26:43.755Z,56.03
2018-04-14T03:29:11.183Z,59.03
2018-04-14T03:31:38.592Z,56.17
2018-04-14T03:34:06.032Z,57.17
2018-04-14T03:36:33.455Z,58.93
2018-04-14T03:39:00.884Z,60.43
2018-04-14T03:41:28.299Z,57.93
2018-04-14T03:43:55.872Z,58.57
2018-04-14T03:46:23.287Z,64.63
2018-04-14T03:48:50.709Z,57.93
2018-04-14T03:51:18.135Z,63.87
2018-04-14T03:53:45.577Z,62.03
2018-04-14T03:56:13.008Z,60.03
2018-04-14T03:58:40.428Z,62.67
2018-04-14T04:01:07.847Z,63.80
2018-04-14T04:03:35.256Z,57.33
2018-04-14T04:06:02.976Z,58.83
2018-04-14T04:08:30.403Z,58.53
2018-04-14T04:10:57.812Z,59.53
2018-04-14T04:13:25.233Z,55.60
2018-04-14T04:15:52.654Z,55.33
2018-04-14T04:18:32.099Z,51.07
2018-04-14T04:21:12.084Z,53.77
2018-04-14T04:23:51.288Z,53.57
2018-04-14T04:26:18.692Z,56.63
2018-04-14T04:28:46.124Z,53.97
2018-04-14T04:31:13.536Z,56.90
2018-04-14T04:33:40.959Z,54.47
2018-04-14T04:36:08.388Z,58.80
2018-04-14T04:38:35.818Z,58.20
2018-04-14T04:41:03.240Z,58.20
2018-04-14T04:43:30.643Z,59.30
2018-04-14T04:45:58.216Z,59.17
2018-04-14T04:48:25.635Z,62.00
2018-04-14T04:50:53.040Z,62.17
2018-04-14T04:53:20.473Z,60.30
2018-04-14T04:55:47.887Z,58.17
2018-04-14T04:58:15.299Z,57.93
2018-04-14T05:00:42.725Z,57.17
2018-04-14T05:03:10.154Z,59.13
2018-04-14T05:05:37.588Z,59.43
2018-04-14T05:08:05.082Z,58.10
2018-04-14T05:10:32.488Z,58.93
2018-04-14T05:12:59.916Z,59.07
2018-04-14T05:15:27.324Z,56.60
2018-04-14T05:17:54.754Z,56.50
2018-04-14T05:20:22.172Z,58.13
2018-04-14T05:22:49.603Z,54.03
2018-04-14T05:25:17.025Z,57.00
2018-04-14T05:27:44.437Z,57.30
2018-04-14T05:30:11.857Z,57.27
2018-04-14T05:32:39.272Z,54.30
2018-04-14T05:35:06.684Z,57.17
2018-04-14T05:37:34.163Z,57.80
2018-04-14T05:40:01.511Z,58.93
2018-04-14T05:42:28.943Z,55.67
2018-04-14T05:44:56.354Z,61.30
2018-04-14T05:47:23.764Z,59.23
2018-04-14T05:49:51.215Z,59.27
2018-04-14T05:52:18.618Z,61.83
2018-04-14T05:54:46.036Z,64.27
2018-04-14T05:57:13.483Z,64.50
2018-04-14T05:59:40.901Z,63.57
2018-04-14T06:02:08.319Z,60.10
2018-04-14T06:04:35.752Z,61.20
2018-04-14T06:07:03.196Z,58.30
2018-04-14T06:09:30.608Z,61.33
2018-04-14T06:11:58.149Z,61.60
2018-04-14T06:14:25.565Z,56.30
2018-04-14T06:16:53.006Z,57.33
2018-04-14T06:19:20.446Z,55.63
2018-04-14T06:21:47.859Z,55.03
2018-04-14T06:24:15.295Z,55.63
2018-04-14T06:26:42.836Z,55.03
2018-04-14T06:29:10.296Z,53.47
2018-04-14T06:31:37.708Z,53.07
2018-04-14T06:34:05.135Z,54.27
2018-04-14T06:36:32.548Z,53.93
2018-04-14T06:39:00.317Z,52.43
2018-04-14T06:41:27.729Z,51.37
2018-04-14T06:43:55.143Z,51.03
2018-04-14T06:46:22.617Z,52.70
2018-04-14T06:48:50.012Z,48.20
2018-04-14T06:51:17.433Z,48.67
2018-04-14T06:53:45.236Z,49.33
2018-04-14T06:56:12.648Z,54.58
2018-04-14T06:58:40.071Z,52.30
2018-04-14T07:01:07.495Z,47.37
2018-04-14T07:03:34.932Z,48.30
2018-04-14T07:06:02.364Z,47.83
2018-04-14T07:08:29.776Z,46.80
2018-04-14T07:10:57.221Z,45.97
2018-04-14T07:13:24.645Z,44.23
2018-04-14T07:15:52.085Z,43.63
2018-04-14T07:18:19.517Z,43.60
2018-04-14T07:20:47.108Z,42.60
2018-04-14T07:23:14.512Z,41.83
2018-04-14T07:25:41.920Z,41.70
2018-04-14T07:28:09.360Z,40.67
2018-04-14T07:30:37.066Z,41.07
2018-04-14T07:33:04.500Z,39.40
2018-04-14T07:35:32.825Z,41.03
2018-04-14T07:38:00.252Z,39.20
2018-04-14T07:40:27.672Z,38.17
2018-04-14T07:42:55.109Z,37.67
2018-04-14T07:45:22.532Z,39.73
2018-04-14T07:47:49.960Z,37.53
2018-04-14T07:50:17.380Z,38.00
2018-04-14T07:52:44.839Z,38.87
2018-04-14T07:55:12.293Z,38.43
2018-04-14T07:57:39.741Z,38.07
2018-04-14T08:00:07.147Z,36.10
2018-04-14T08:02:34.763Z,35.30
2018-04-14T08:05:02.181Z,36.77
2018-04-14T08:07:29.605Z,35.03
2018-04-14T08:09:57.065Z,35.53
2018-04-14T08:12:24.476Z,36.57
2018-04-14T08:14:51.968Z,38.10
2018-04-14T08:17:19.423Z,37.60
2018-04-14T08:19:48.389Z,38.20
2018-04-14T08:22:16.174Z,37.17
2018-04-14T08:24:43.687Z,36.90
2018-04-14T08:27:11.072Z,35.70
2018-04-14T08:29:38.499Z,33.97
2018-04-14T08:32:05.905Z,38.87
2018-04-14T08:34:33.335Z,40.10
2018-04-14T08:37:00.745Z,38.77
2018-04-14T08:39:28.171Z,38.30
2018-04-14T08:41:55.610Z,36.37
2018-04-14T08:44:23.210Z,35.77
2018-04-14T08:46:51.651Z,39.10
2018-04-14T08:49:19.062Z,39.57
2018-04-14T08:51:46.477Z,38.27
2018-04-14T08:54:13.907Z,38.07
2018-04-14T08:56:41.357Z,39.60
2018-04-14T08:59:08.776Z,39.23
2018-04-14T09:01:36.200Z,37.90
2018-04-14T09:04:03.628Z,40.70
2018-04-14T09:06:31.965Z,39.33
2018-04-14T09:08:59.375Z,38.20
2018-04-14T09:11:27.441Z,40.43
2018-04-14T09:13:55.229Z,39.50
2018-04-14T09:16:22.657Z,37.80
2018-04-14T09:18:50.372Z,39.13
2018-04-14T09:21:17.931Z,39.23
2018-04-14T09:23:45.341Z,39.10
2018-04-14T09:26:12.819Z,37.93
2018-04-14T09:28:40.343Z,38.33
2018-04-14T09:31:07.760Z,40.57
2018-04-14T09:33:35.169Z,40.57
2018-04-14T09:36:04.003Z,38.50
2018-04-14T09:38:31.408Z,39.53
2018-04-14T09:40:58.827Z,38.97
2018-04-14T09:43:26.429Z,40.03
2018-04-14T09:45:53.974Z,40.77
2018-04-14T09:48:22.636Z,40.47
2018-04-14T09:50:50.060Z,39.63
2018-04-14T09:53:18.248Z,42.07
2018-04-14T09:55:45.689Z,40.87
2018-04-14T09:58:13.123Z,41.40
2018-04-14T10:00:46.326Z,41.77
2018-04-14T10:03:19.471Z,39.93
2018-04-14T10:05:47.596Z,42.50
2018-04-14T10:08:14.996Z,42.70
2018-04-14T10:10:42.452Z,42.37
2018-04-14T10:13:09.851Z,41.37
2018-04-14T10:15:37.288Z,42.23
2018-04-14T10:18:04.696Z,41.63
2018-04-14T10:20:32.104Z,41.53
2018-04-14T10:22:59.544Z,39.97
2018-04-14T10:25:26.992Z,41.37
2018-04-14T10:27:54.411Z,40.77
2018-04-14T10:30:21.856Z,40.63
2018-04-14T10:32:49.512Z,41.33
2018-04-14T10:35:16.940Z,42.33
2018-04-14T10:37:44.553Z,40.37
2018-04-14T10:40:11.912Z,41.43
2018-04-14T10:42:39.320Z,41.70
2018-04-14T10:45:06.754Z,41.30
2018-04-14T10:47:34.530Z,41.73
2018-04-14T10:50:01.967Z,42.30
2018-04-14T10:52:29.366Z,41.60
2018-04-14T10:54:56.811Z,42.07
2018-04-14T10:57:24.232Z,42.77
2018-04-14T10:59:51.655Z,43.23
2018-04-14T11:02:19.079Z,43.33
2018-04-14T11:04:46.504Z,43.63
2018-04-14T11:07:13.917Z,43.07
2018-04-14T11:09:41.345Z,42.43
2018-04-14T11:12:08.760Z,41.43
2018-04-14T11:14:36.176Z,41.73
2018-04-14T11:17:03.628Z,42.87
2018-04-14T11:19:31.042Z,40.60
2018-04-14T11:21:58.500Z,40.87
2018-04-14T11:24:25.922Z,42.47
2018-04-14T11:26:53.368Z,42.33
2018-04-14T11:29:20.791Z,40.53
2018-04-14T11:31:48.460Z,38.93
2018-04-14T11:34:15.868Z,38.87
2018-04-14T11:36:43.288Z,41.07
2018-04-14T11:39:10.703Z,40.83
2018-04-14T11:41:38.135Z,37.63
2018-04-14T11:44:05.549Z,41.27
2018-04-14T11:46:32.961Z,40.30
2018-04-14T11:49:00.392Z,40.83
2018-04-14T11:51:27.807Z,40.93
2018-04-14T11:53:55.224Z,40.70
2018-04-14T11:56:22.669Z,39.67
2018-04-14T11:58:50.077Z,39.60
2018-04-14T12:01:17.483Z,39.57
2018-04-14T12:03:45.013Z,40.37
2018-04-14T12:06:12.384Z,44.23
2018-04-14T12:08:39.800Z,40.87
2018-04-14T12:11:07.245Z,42.80
2018-04-14T12:13:34.660Z,37.63
2018-04-14T12:16:02.148Z,37.43
2018-04-14T12:18:29.576Z,40.13
2018-04-14T12:20:57.000Z,40.13
2018-04-14T12:23:24.463Z,38.33
2018-04-14T12:25:51.917Z,37.13
2018-04-14T12:28:19.732Z,38.00
2018-04-14T12:30:47.124Z,39.07
2018-04-14T12:33:14.544Z,39.00
2018-04-14T12:35:42.142Z,39.40
2018-04-14T12:38:09.636Z,40.47
2018-04-14T12:40:37.085Z,38.13
2018-04-14T12:43:04.537Z,38.67
2018-04-14T12:45:32.699Z,39.43
2018-04-14T12:48:00.138Z,38.57
2018-04-14T12:50:27.552Z,39.70
2018-04-14T12:52:54.976Z,38.63
2018-04-14T12:55:22.391Z,39.13
2018-04-14T12:57:51.457Z,39.57
2018-04-14T13:00:18.873Z,39.77
2018-04-14T13:02:46.275Z,37.50
2018-04-14T13:05:14.502Z,39.37
2018-04-14T13:07:41.936Z,36.77
2018-04-14T13:10:09.361Z,38.77
2018-04-14T13:12:36.805Z,37.93
2018-04-14T13:15:04.216Z,41.03
2018-04-14T13:17:31.946Z,38.80
2018-04-14T13:19:59.353Z,37.27
2018-04-14T13:22:26.821Z,38.63
2018-04-14T13:24:54.399Z,38.77
2018-04-14T13:27:21.799Z,38.50
2018-04-14T13:29:49.215Z,40.73
2018-04-14T13:32:16.908Z,39.93
2018-04-14T13:34:44.335Z,39.97
2018-04-14T13:37:11.745Z,38.70
2018-04-14T13:39:39.240Z,41.97
2018-04-14T13:42:06.655Z,41.50
2018-04-14T13:44:34.071Z,43.23
2018-04-14T13:47:01.491Z,38.53
2018-04-14T13:49:28.928Z,37.97
2018-04-14T13:51:56.402Z,41.63
2018-04-14T13:54:23.799Z,38.53
2018-04-14T13:56:51.212Z,40.63
2018-04-14T13:59:18.628Z,39.23
2018-04-14T14:01:46.195Z,36.80
2018-04-14T14:04:13.632Z,40.60
2018-04-14T14:06:41.124Z,38.13
2018-04-14T14:09:08.530Z,37.93
2018-04-14T14:11:35.948Z,38.17
2018-04-14T14:14:03.405Z,38.60
2018-04-14T14:16:30.823Z,38.07
2018-04-14T14:18:58.400Z,40.37
2018-04-14T14:21:25.907Z,39.40
2018-04-14T14:23:53.367Z,39.67
2018-04-14T14:26:20.763Z,37.97
2018-04-14T14:28:48.244Z,40.73
2018-04-14T14:31:15.727Z,39.73
2018-04-14T14:33:43.163Z,41.73
2018-04-14T14:36:10.596Z,39.60
2018-04-14T14:38:38.047Z,44.63
2018-04-14T14:41:05.544Z,41.83
2018-04-14T14:43:32.962Z,40.80
2018-04-14T14:46:00.381Z,42.13
2018-04-14T14:48:27.861Z,40.40
2018-04-14T14:50:55.423Z,39.57
2018-04-14T14:53:22.835Z,38.77
2018-04-14T14:55:50.245Z,39.67
2018-04-14T14:58:17.692Z,42.10
2018-04-14T15:00:45.105Z,40.30
2018-04-14T15:03:12.557Z,42.70
2018-04-14T15:05:39.975Z,40.97
2018-04-14T15:08:07.392Z,41.60
2018-04-14T15:10:34.830Z,39.90
2018-04-14T15:13:02.285Z,41.83
2018-04-14T15:15:29.791Z,39.60
2018-04-14T15:17:57.232Z,40.77
2018-04-14T15:20:24.641Z,41.40
2018-04-14T15:22:52.074Z,42.63
2018-04-14T15:25:19.514Z,43.90
2018-04-14T15:27:46.929Z,39.77
2018-04-14T15:30:14.349Z,42.77
2018-04-14T15:32:41.772Z,43.60
2018-04-14T15:35:09.184Z,43.97
2018-04-14T15:37:36.612Z,44.40
2018-04-14T15:40:04.016Z,43.30
2018-04-14T15:42:31.460Z,42.77
2018-04-14T15:44:58.877Z,43.17
2018-04-14T15:47:26.288Z,44.10
2018-04-14T15:49:53.710Z,43.07
2018-04-14T15:52:21.116Z,43.77
2018-04-14T15:54:48.560Z,42.03
2018-04-14T15:57:15.963Z,42.17
2018-04-14T15:59:43.533Z,41.20
2018-04-14T16:02:10.943Z,42.50
2018-04-14T16:04:38.422Z,40.50
2018-04-14T16:07:05.798Z,43.30
2018-04-14T16:09:33.208Z,44.37
2018-04-14T16:12:00.639Z,44.43
2018-04-14T16:14:28.049Z,44.83
2018-04-14T16:16:55.461Z,44.87
2018-04-14T16:19:22.903Z,46.10
2018-04-14T16:21:50.355Z,43.17
2018-04-14T16:24:17.782Z,43.27
2018-04-14T16:26:45.224Z,45.20
2018-04-14T16:29:12.652Z,46.00
2018-04-14T16:31:40.073Z,43.43
2018-04-14T16:34:07.500Z,43.80
2018-04-14T16:36:34.956Z,43.13
2018-04-14T16:39:02.376Z,44.80
2018-04-14T16:41:29.784Z,43.53
2018-04-14T16:43:57.198Z,42.60
2018-04-14T16:46:24.614Z,44.03
2018-04-14T16:48:52.085Z,44.97
2018-04-14T16:51:19.468Z,43.60
2018-04-14T16:53:46.887Z,43.53
2018-04-14T16:56:14.603Z,42.87
2018-04-14T16:58:42.009Z,42.63
2018-04-14T17:01:09.465Z,42.73
2018-04-14T17:03:36.848Z,42.90
2018-04-14T17:06:04.257Z,42.30
2018-04-14T17:08:31.684Z,42.00
2018-04-14T17:10:59.118Z,44.10
2018-04-14T17:13:26.551Z,41.70
2018-04-14T17:15:54.044Z,41.77
2018-04-14T17:18:21.512Z,40.73
2018-04-14T17:20:48.927Z,41.20
2018-04-14T17:23:16.420Z,38.93
2018-04-14T17:25:43.828Z,41.67
2018-04-14T17:28:11.275Z,38.57
2018-04-14T17:30:38.685Z,39.90
2018-04-14T17:33:06.095Z,39.83
2018-04-14T17:35:33.624Z,39.17
2018-04-14T17:38:01.046Z,36.97
2018-04-14T17:40:28.453Z,41.10
2018-04-14T17:42:55.985Z,37.30
2018-04-14T17:45:23.392Z,38.37
2018-04-14T17:47:50.824Z,35.47
2018-04-14T17:50:18.300Z,36.37
2018-04-14T17:52:45.742Z,36.30
2018-04-14T17:55:13.169Z,36.07
2018-04-14T17:57:40.583Z,36.93
2018-04-14T18:00:08.016Z,37.73
2018-04-14T18:02:35.491Z,38.20
2018-04-14T18:05:02.891Z,36.47
2018-04-14T18:07:30.313Z,37.57
2018-04-14T18:09:57.734Z,37.10
2018-04-14T18:12:25.135Z,34.33
2018-04-14T18:14:52.564Z,37.63
2018-04-14T18:17:20.007Z,36.80
2018-04-14T18:19:47.428Z,37.70
2018-04-14T18:22:14.856Z,37.27
2018-04-14T18:24:42.272Z,35.30
2018-04-14T18:27:09.696Z,38.47
2018-04-14T18:29:37.104Z,35.67
2018-04-14T18:32:04.552Z,33.27
2018-04-14T18:34:32.007Z,34.87
2018-04-14T18:36:59.432Z,37.37
2018-04-14T18:39:26.891Z,37.30
2018-04-14T18:41:54.308Z,36.23
2018-04-14T18:44:21.727Z,37.43
2018-04-14T18:46:49.156Z,36.40
2018-04-14T18:49:16.572Z,33.57
2018-04-14T18:51:43.996Z,34.17
2018-04-14T18:54:11.452Z,36.50
2018-04-14T18:56:39.154Z,34.90
2018-04-14T18:59:06.572Z,32.60
2018-04-14T19:01:33.984Z,32.10
2018-04-14T19:04:01.441Z,32.47
2018-04-14T19:06:28.858Z,32.90
2018-04-14T19:08:56.335Z,34.93
2018-04-14T19:11:23.772Z,34.60
2018-04-14T19:13:51.186Z,32.70
2018-04-14T19:16:18.600Z,32.00
2018-04-14T19:18:46.032Z,33.43
2018-04-14T19:21:13.539Z,31.97
2018-04-14T19:23:40.947Z,33.23
2018-04-14T19:26:08.381Z,33.17
2018-04-14T19:28:35.812Z,32.70
2018-04-14T19:31:03.226Z,33.83
2018-04-14T19:33:30.676Z,30.13
2018-04-14T19:35:58.135Z,31.43
2018-04-14T19:38:25.664Z,38.03
2018-04-14T19:40:53.380Z,36.50
2018-04-14T19:43:20.835Z,37.63
2018-04-14T19:45:48.224Z,38.70
2018-04-14T19:48:15.648Z,35.27
2018-04-14T19:50:43.372Z,35.73
2018-04-14T19:53:10.788Z,35.00
2018-04-14T19:55:38.203Z,37.17
2018-04-14T19:58:05.638Z,38.80
2018-04-14T20:00:33.052Z,38.90
2018-04-14T20:03:00.476Z,35.57
2018-04-14T20:05:27.920Z,36.63
2018-04-14T20:07:55.444Z,40.40
2018-04-14T20:10:22.900Z,41.57
2018-04-14T20:12:50.315Z,37.97
2018-04-14T20:15:17.761Z,40.63
2018-04-14T20:17:45.181Z,39.37
2018-04-14T20:20:13.286Z,40.13
2018-04-14T20:22:41.011Z,39.50
2018-04-14T20:25:08.482Z,41.47
2018-04-14T20:27:35.948Z,40.90
2018-04-14T20:30:03.567Z,38.83
2018-04-14T20:32:30.985Z,39.20
2018-04-14T20:34:58.445Z,41.73
2018-04-14T20:37:26.243Z,40.17
2018-04-14T20:39:53.668Z,39.17
2018-04-14T20:42:21.096Z,45.50
2018-04-14T20:44:48.533Z,45.00
2018-04-14T20:47:15.944Z,42.80
2018-04-14T20:49:43.487Z,45.37
2018-04-14T20:52:10.913Z,44.17
2018-04-14T20:54:38.361Z,45.10
2018-04-14T20:57:05.810Z,47.70
2018-04-14T20:59:33.229Z,43.80
2018-04-14T21:02:00.658Z,45.27
2018-04-14T21:04:28.090Z,44.20
2018-04-14T21:06:55.526Z,46.70
2018-04-14T21:09:22.940Z,46.80
2018-04-14T21:11:50.368Z,45.77
2018-04-14T21:14:17.792Z,47.00
2018-04-14T21:16:45.211Z,46.20
2018-04-14T21:19:12.632Z,45.90
2018-04-14T21:21:40.056Z,47.00
2018-04-14T21:24:07.465Z,43.07
2018-04-14T21:26:34.877Z,42.37
2018-04-14T21:29:02.301Z,46.40
2018-04-14T21:31:29.716Z,45.17
2018-04-14T21:33:57.145Z,46.17
2018-04-14T21:36:24.556Z,43.63
2018-04-14T21:38:51.980Z,44.33
2018-04-14T21:41:19.392Z,45.93
2018-04-14T21:43:46.852Z,45.67
2018-04-14T21:46:14.272Z,43.90
2018-04-14T21:48:41.719Z,45.63
2018-04-14T21:51:09.140Z,46.03
2018-04-14T21:53:37.464Z,45.63
2018-04-14T21:56:05.334Z,44.97
2018-04-14T21:58:32.740Z,45.97
2018-04-14T22:01:00.164Z,44.00
2018-04-14T22:03:27.604Z,45.07
2018-04-14T22:05:55.179Z,42.37
2018-04-14T22:08:22.589Z,45.57
2018-04-14T22:10:50.013Z,43.50
2018-04-14T22:13:17.453Z,45.87
2018-04-14T22:15:44.868Z,45.87
2018-04-14T22:18:12.302Z,46.03
2018-04-14T22:20:39.723Z,46.80
2018-04-14T22:23:07.123Z,43.67
2018-04-14T22:25:34.577Z,48.43
2018-04-14T22:28:01.993Z,44.13
2018-04-14T22:30:29.412Z,41.13
2018-04-14T22:32:56.844Z,39.50
2018-04-14T22:35:24.256Z,37.13
2018-04-14T22:37:51.697Z,38.70
2018-04-14T22:40:19.108Z,38.10
2018-04-14T22:42:46.742Z,36.07
2018-04-14T22:45:14.148Z,40.73
2018-04-14T22:47:41.576Z,43.57
2018-04-14T22:50:09.013Z,46.13
2018-04-14T22:52:36.432Z,41.63
2018-04-14T22:55:03.865Z,44.10
2018-04-14T22:57:31.279Z,41.60
2018-04-14T22:59:58.701Z,42.13
2018-04-14T23:02:26.283Z,38.93
2018-04-14T23:04:53.690Z,40.60
2018-04-14T23:07:21.118Z,47.90
2018-04-14T23:09:48.554Z,46.17
2018-04-14T23:12:15.978Z,45.90
2018-04-14T23:14:43.402Z,47.00
2018-04-14T23:17:10.850Z,44.03
2018-04-14T23:19:38.266Z,40.67
2018-04-14T23:22:06.591Z,44.87
2018-04-14T23:24:34.045Z,44.47
2018-04-14T23:27:01.470Z,47.43
2018-04-14T23:29:28.900Z,42.80
2018-04-14T23:31:56.332Z,41.70
2018-04-14T23:34:23.913Z,40.00
2018-04-14T23:36:51.471Z,37.23
2018-04-14T23:39:18.888Z,34.03
2018-04-14T23:41:46.312Z,35.30
2018-04-14T23:44:13.732Z,40.27
2018-04-14T23:46:41.159Z,35.73
2018-04-14T23:49:08.588Z,39.60
2018-04-14T23:51:35.999Z,45.27
2018-04-14T23:54:03.443Z,40.93
2018-04-14T23:56:30.859Z,40.57
2018-04-14T23:58:58.396Z,39.63
